Time;durP1;ratioP1;P1;durP2;ratioP2;P2;SDS_P1;SDS_P2;PMS_P1;PMS_P2;Temp;Humidity;BMP_temperature;BMP_pressure;BME280_temperature;BME280_humidity;BME280_pressure;Samples;Min_cycle;Max_cycle;Signal;HPM_P1;HPM_P2
2021/11/07 00:02:49;;;;;;;9.60;7.00;;;;;;;19.22;52.04;102067.68;114284;1211;60022;-82
2021/11/07 00:05:43;;;;;;;9.30;6.60;;;;;;;19.22;52.03;102071.07;114341;1209;72476;-82
2021/11/07 00:14:27;;;;;;;10.50;7.10;;;;;;;19.21;51.97;102063.05;115341;1198;58897;-82
2021/11/07 00:17:05;;;;;;;9.40;6.90;;;;;;;19.21;52.10;102065.59;115276;1200;58849;-82
2021/11/07 00:20:12;;;;;;;9.40;6.90;;;;;;;19.21;52.07;102066.45;115312;1198;65859;-83
2021/11/07 00:26:09;;;;;;;9.10;6.80;;;;;;;19.21;52.13;102070.78;115021;1198;60305;-81
2021/11/07 00:28:47;;;;;;;9.30;6.80;;;;;;;19.22;52.10;102066.80;115185;1199;72256;-82
2021/11/07 00:31:41;;;;;;;;;;;;;;;;;;;;;
2021/11/07 00:40:39;;;;;;;12.00;6.60;;;;;;;19.21;52.12;102058.80;115267;1198;72294;-82
2021/11/07 00:43:07;;;;;;;9.50;6.70;;;;;;;19.21;52.15;102055.58;115322;1198;65751;-81
2021/11/07 00:45:59;;;;;;;9.50;6.70;;;;;;;19.21;52.21;102052.02;115276;1198;58872;-81
2021/11/07 00:48:54;;;;;;;11.50;7.00;;;;;;;19.21;52.15;102043.80;115263;1198;58889;-81
2021/11/07 00:51:57;;;;;;;;;;;;;;;;;;;;;
2021/11/07 01:01:43;;;;;;;9.90;7.00;;;;;;;19.19;52.14;102039.77;114850;1203;58885;-82
2021/11/07 01:04:36;;;;;;;9.70;6.50;;;;;;;19.20;52.12;102030.30;115158;1201;64078;-81
2021/11/07 01:07:14;;;;;;;;;;;;;;;;;;;;;
2021/11/07 01:09:39;;;;;;;9.30;6.10;;;;;;;19.20;52.26;102024.59;115155;1201;60019;-82
2021/11/07 01:12:06;;;;;;;10.60;7.20;;;;;;;19.20;52.02;102022.06;115221;1201;58705;-82
2021/11/07 01:14:49;;;;;;;9.60;6.80;;;;;;;19.21;52.11;102018.66;115139;1200;58805;-82
2021/11/07 01:17:47;;;;;;;;;;;;;;;;;;;;;
2021/11/07 01:20:21;;;;;;;9.00;6.70;;;;;;;19.21;52.10;102017.59;115198;1201;60199;-81
2021/11/07 01:22:59;;;;;;;9.50;6.60;;;;;;;19.21;52.04;102016.88;115150;1201;60159;-82
2021/11/07 01:25:36;;;;;;;9.60;6.60;;;;;;;19.21;52.11;102014.19;115186;1194;72195;-82
2021/11/07 01:28:25;;;;;;;8.00;6.30;;;;;;;19.21;52.13;102015.78;115185;1201;75410;-82
2021/11/07 01:31:38;;;;;;;;;;;;;;;;;;;;;
2021/11/07 01:34:43;;;;;;;9.20;6.10;;;;;;;19.20;52.13;102014.60;115192;1201;59895;-82
2021/11/07 01:37:54;;;;;;;8.90;6.00;;;;;;;19.20;52.18;102018.17;115321;1198;72362;-83
2021/11/07 01:40:40;;;;;;;9.70;6.40;;;;;;;19.19;52.18;102011.22;115167;1198;74416;-82
2021/11/07 01:43:56;;;;;;;;;;;;;;;;;;;;;
2021/11/07 01:50:18;;;;;;;9.40;6.80;;;;;;;19.18;52.11;102008.41;114835;1198;72510;-81
2021/11/07 01:52:53;;;;;;;9.00;6.20;;;;;;;19.19;52.14;102005.15;115139;1198;75017;-81
2021/11/07 01:55:27;;;;;;;10.90;6.00;;;;;;;19.19;52.12;102002.13;115225;1198;59623;-82
2021/11/07 01:58:10;;;;;;;8.90;6.40;;;;;;;19.19;52.08;101999.98;115315;1200;59091;-82
2021/11/07 02:00:55;;;;;;;10.00;6.90;;;;;;;19.19;52.09;102003.58;115187;1198;73264;-82
2021/11/07 02:04:21;;;;;;;10.60;6.80;;;;;;;19.19;52.13;101998.39;115215;1198;73974;-82
2021/11/07 02:07:50;;;;;;;8.50;6.30;;;;;;;19.18;52.22;101998.05;114839;1203;59870;-82
2021/11/07 02:23:35;;;;;;;10.30;7.00;;;;;;;19.15;52.05;101980.35;115223;1200;58865;-82
2021/11/07 02:26:05;;;;;;;10.10;6.20;;;;;;;19.16;52.16;101983.35;115246;1200;72567;-81
2021/11/07 02:28:39;;;;;;;10.00;6.60;;;;;;;19.16;52.18;101981.20;115144;1198;75658;-81
2021/11/07 02:31:22;;;;;;;9.10;6.50;;;;;;;19.17;52.25;101979.73;115182;1200;61004;-81
2021/11/07 02:33:59;;;;;;;10.90;7.00;;;;;;;19.17;52.20;101976.19;115254;1200;60205;-81
2021/11/07 02:36:43;;;;;;;9.60;6.40;;;;;;;19.17;52.16;101976.16;115304;1200;72055;-81
2021/11/07 02:39:46;;;;;;;9.60;6.40;;;;;;;19.17;52.14;101971.17;115108;1200;74329;-83
2021/11/07 02:42:32;;;;;;;;;;;;;;;;;;;;;
2021/11/07 02:45:44;;;;;;;;;;;;;;;;;;;;;
2021/11/07 02:49:01;;;;;;;9.00;5.90;;;;;;;19.16;52.27;101959.60;115149;1200;72390;-83
2021/11/07 02:51:52;;;;;;;9.50;6.70;;;;;;;19.16;52.19;101955.33;115201;1200;74387;-83
2021/11/07 02:54:32;;;;;;;10.70;6.60;;;;;;;19.16;52.23;101948.70;115266;1200;60436;-82
2021/11/07 02:56:58;;;;;;;9.10;6.20;;;;;;;19.17;52.16;101942.46;115077;1199;61333;-83
2021/11/07 03:00:02;;;;;;;10.50;6.60;;;;;;;19.17;52.09;101939.77;115147;1199;72153;-83
2021/11/07 03:02:38;;;;;;;9.90;5.80;;;;;;;19.16;52.26;101933.38;115187;1200;75310;-83
2021/11/07 03:05:10;;;;;;;9.40;6.60;;;;;;;19.16;52.16;101927.11;115285;1200;61314;-83
2021/11/07 03:07:36;;;;;;;8.90;6.40;;;;;;;19.17;52.21;101924.79;115319;1199;60027;-82
2021/11/07 03:10:13;;;;;;;9.20;5.60;;;;;;;19.17;52.07;101923.36;115271;1200;58194;-82
2021/11/07 03:12:39;;;;;;;10.00;6.20;;;;;;;19.16;52.20;101920.52;115066;1199;74197;-83
2021/11/07 03:15:28;;;;;;;8.90;6.20;;;;;;;19.16;52.17;101926.39;115305;1200;58914;-83
2021/11/07 03:18:08;;;;;;;8.80;5.90;;;;;;;19.17;52.07;101927.09;115247;1199;61195;-82
2021/11/07 03:21:25;;;;;;;;;;;;;;;;;;;;;
2021/11/07 03:37:44;;;;;;;10.10;6.20;;;;;;;19.14;52.26;101906.02;114706;1198;74305;-81
2021/11/07 03:40:10;;;;;;;10.90;6.20;;;;;;;19.14;52.14;101904.21;115225;1198;60226;-81
2021/11/07 03:43:00;;;;;;;;;;;;;;;;;;;;;
2021/11/07 03:45:56;;;;;;;9.40;6.30;;;;;;;19.14;52.18;101911.89;114977;1202;71352;-82
2021/11/07 03:49:54;;;;;;;9.70;6.10;;;;;;;19.14;52.37;101911.89;115153;1201;73138;-82
2021/11/07 03:52:37;;;;;;;;;;;;;;;;;;;;;
2021/11/07 03:55:42;;;;;;;8.70;5.80;;;;;;;19.13;52.39;101902.27;115198;1201;59592;-82
2021/11/07 03:58:55;;;;;;;;;;;;;;;;;;;;;
2021/11/07 04:01:42;;;;;;;;;;;;;;;;;;;;;
2021/11/07 04:04:17;;;;;;;8.30;6.40;;;;;;;19.13;52.38;101892.98;114685;1206;59832;-81
2021/11/07 04:06:51;;;;;;;9.00;6.20;;;;;;;19.14;52.38;101890.30;114755;1205;59088;-82
2021/11/07 04:09:39;;;;;;;;;;;;;;;;;;;;;
2021/11/07 04:12:25;;;;;;;8.70;5.70;;;;;;;19.14;52.37;101885.66;114714;1205;74164;-81
2021/11/07 04:15:43;;;;;;;8.60;6.30;;;;;;;19.13;52.33;101878.55;114752;1205;58855;-82
2021/11/07 04:18:33;;;;;;;8.10;5.90;;;;;;;19.13;52.39;101873.73;114555;1208;59980;-81
2021/11/07 04:21:30;;;;;;;11.50;6.30;;;;;;;19.14;52.39;101873.90;114494;1208;72314;-82
2021/11/07 04:30:49;;;;;;;8.50;6.30;;;;;;;19.12;52.37;101869.52;114732;1196;60173;-81
2021/11/07 04:33:15;;;;;;;9.30;6.20;;;;;;;19.12;52.42;101873.43;115135;1198;63691;-81
2021/11/07 04:36:04;;;;;;;9.40;6.80;;;;;;;19.13;52.36;101866.81;115124;1199;59002;-81
2021/11/07 04:38:40;;;;;;;9.00;6.20;;;;;;;19.12;52.36;101867.55;115347;1198;58697;-81
2021/11/07 04:41:35;;;;;;;10.10;6.20;;;;;;;19.12;52.31;101865.75;115248;1198;58845;-82
2021/11/07 04:48:01;;;;;;;8.50;6.10;;;;;;;19.12;52.34;101867.21;115106;1198;74407;-82
2021/11/07 04:50:27;;;;;;;9.50;6.20;;;;;;;19.11;52.42;101873.99;115154;1198;58817;-81
2021/11/07 04:53:30;;;;;;;10.30;6.70;;;;;;;19.11;52.44;101875.98;115239;1198;58747;-81
2021/11/07 04:55:58;;;;;;;10.40;6.60;;;;;;;19.12;52.50;101885.75;115148;1199;59311;-81
2021/11/07 04:58:40;;;;;;;11.30;6.50;;;;;;;19.12;52.44;101888.42;115184;1198;66551;-81
2021/11/07 05:01:11;;;;;;;8.30;6.30;;;;;;;19.12;52.40;101892.91;115194;1198;58897;-81
2021/11/07 05:03:45;;;;;;;11.00;6.50;;;;;;;19.12;52.38;101890.73;115335;1198;58655;-81
2021/11/07 05:06:42;;;;;;;9.00;6.00;;;;;;;19.12;52.49;101891.09;115153;1198;63767;-82
2021/11/07 05:09:19;;;;;;;10.10;6.10;;;;;;;19.12;52.39;101894.14;115199;1201;65495;-82
2021/11/07 05:11:45;;;;;;;9.60;6.40;;;;;;;19.13;52.35;101893.92;114868;1201;59867;-82
2021/11/07 05:14:48;;;;;;;9.90;6.30;;;;;;;19.12;52.49;101890.37;115009;1202;60191;-82
2021/11/07 05:17:35;;;;;;;;;;;;;;;;;;;;;
2021/11/07 05:20:04;;;;;;;9.50;6.00;;;;;;;19.12;52.43;101900.91;115201;1201;75410;-83
2021/11/07 05:22:41;;;;;;;11.80;6.20;;;;;;;19.12;52.46;101900.02;114984;1201;59964;-83
2021/11/07 05:25:43;;;;;;;8.20;5.70;;;;;;;19.12;52.45;101893.59;115027;1201;59985;-83
2021/11/07 05:28:29;;;;;;;11.00;6.50;;;;;;;19.12;52.45;101895.74;115075;1201;73398;-82
2021/11/07 05:31:39;;;;;;;;;;;;;;;;;;;;;
2021/11/07 05:34:47;;;;;;;;;;;;;;;;;;;;;
2021/11/07 05:37:58;;;;;;;8.40;5.70;;;;;;;19.11;52.44;101909.70;114760;1205;61140;-83
2021/11/07 05:40:30;;;;;;;9.10;6.00;;;;;;;19.11;52.51;101913.07;114735;1205;72154;-83
2021/11/07 05:43:08;;;;;;;8.00;5.80;;;;;;;19.12;52.55;101913.42;114805;1205;75274;-83
2021/11/07 05:45:36;;;;;;;10.10;6.60;;;;;;;19.12;52.44;101912.14;114735;1203;61136;-83
2021/11/07 05:48:05;;;;;;;9.50;6.80;;;;;;;19.12;52.48;101909.46;114841;1203;60014;-83
2021/11/07 05:50:33;;;;;;;10.40;6.30;;;;;;;19.13;52.53;101913.89;114828;1203;73311;-83
2021/11/07 05:53:17;;;;;;;8.70;6.30;;;;;;;19.13;52.62;101916.92;114839;1203;75351;-83
2021/11/07 05:56:12;;;;;;;8.70;6.10;;;;;;;19.13;52.52;101917.09;114668;1203;59975;-82
2021/11/07 05:59:02;;;;;;;;;;;;;;;;;;;;;
2021/11/07 06:01:45;;;;;;;;;;;;;;;;;;;;;
2021/11/07 06:04:26;;;;;;;;;;;;;;;;;;;;;
2021/11/07 06:06:53;;;;;;;8.30;5.80;;;;;;;19.14;52.50;101920.30;115002;1202;60171;-83
2021/11/07 06:09:59;;;;;;;8.90;6.50;;;;;;;19.13;52.65;101921.89;114970;1202;60241;-83
2021/11/07 06:12:28;;;;;;;9.70;6.60;;;;;;;19.14;52.53;101918.86;115286;1198;73409;-83
2021/11/07 06:15:32;;;;;;;8.40;6.00;;;;;;;19.14;52.38;101924.02;115338;1198;73327;-84
2021/11/07 06:20:58;;;;;;;9.30;6.10;;;;;;;19.14;52.53;101926.17;114949;1196;60601;-82
2021/11/07 06:23:45;;;;;;;9.30;6.60;;;;;;;19.14;52.52;101929.19;115284;1198;73086;-81
2021/11/07 06:27:08;;;;;;;9.70;6.60;;;;;;;19.14;52.53;101924.59;115286;1198;74342;-82
2021/11/07 06:30:18;;;;;;;8.90;5.80;;;;;;;19.13;52.59;101926.38;115185;1201;60866;-82
2021/11/07 06:33:30;;;;;;;9.70;6.40;;;;;;;19.13;52.58;101930.86;115043;1202;60309;-83
2021/11/07 06:36:16;;;;;;;8.70;6.30;;;;;;;19.13;52.69;101930.30;114708;1205;72650;-83
2021/11/07 06:39:10;;;;;;;10.50;6.40;;;;;;;19.13;52.58;101934.23;114710;1205;75211;-83
2021/11/07 06:42:17;;;;;;;9.70;6.70;;;;;;;19.12;52.58;101931.59;114682;1205;60005;-82
2021/11/07 06:44:58;;;;;;;9.60;6.50;;;;;;;19.13;52.62;101924.78;114731;1198;63000;-82
2021/11/07 06:47:56;;;;;;;9.50;6.40;;;;;;;19.13;52.64;101925.48;114716;1205;73421;-83
2021/11/07 06:50:41;;;;;;;8.90;6.40;;;;;;;19.13;52.48;101918.36;114638;1206;74359;-82
2021/11/07 06:53:50;;;;;;;9.50;6.80;;;;;;;19.13;52.60;101918.34;114707;1205;58740;-82
2021/11/07 06:59:06;;;;;;;8.00;6.00;;;;;;;19.13;52.60;101909.26;114891;1198;71598;-81
2021/11/07 07:01:32;;;;;;;10.10;6.40;;;;;;;19.13;52.53;101901.77;115183;1198;65573;-81
2021/11/07 07:03:58;;;;;;;10.20;6.20;;;;;;;19.13;52.44;101898.55;115170;1198;58860;-81
2021/11/07 07:06:38;;;;;;;11.00;6.70;;;;;;;19.13;52.55;101892.82;115177;1198;59176;-81
2021/11/07 07:09:25;;;;;;;;;;;;;;;;;;;;;
2021/11/07 07:13:09;;;;;;;9.20;6.40;;;;;;;19.13;52.65;101885.73;115160;1198;65910;-82
2021/11/07 07:15:31;;;;;;;10.10;6.50;;;;;;;19.13;52.53;101879.08;115182;1198;59759;-82
2021/11/07 07:24:16;;;;;;;9.10;6.40;;;;;;;19.13;52.57;101872.31;114489;1198;74308;-83
2021/11/07 07:29:52;;;;;;;10.80;6.30;;;;;;;19.13;52.52;101864.48;114830;1203;59477;-82
2021/11/07 07:35:39;;;;;;;10.50;7.00;;;;;;;19.12;52.58;101858.80;115087;1202;75357;-81
2021/11/07 07:38:26;;;;;;;10.10;6.70;;;;;;;19.12;52.70;101851.48;115176;1201;61257;-81
2021/11/07 07:41:15;;;;;;;9.10;6.50;;;;;;;19.12;52.52;101851.66;115141;1201;59292;-82
2021/11/07 07:44:06;;;;;;;;;;;;;;;;;;;;;
2021/11/07 07:47:27;;;;;;;9.00;6.40;;;;;;;19.12;52.73;101845.05;114841;1202;74205;-82
2021/11/07 07:50:16;;;;;;;12.20;6.60;;;;;;;19.12;52.53;101842.91;114778;1204;58863;-82
2021/11/07 07:53:09;;;;;;;9.40;6.40;;;;;;;19.12;52.70;101847.19;114781;1205;61161;-82
2021/11/07 07:56:06;;;;;;;10.10;6.70;;;;;;;19.13;52.62;101839.68;114784;1205;72245;-82
2021/11/07 07:58:45;;;;;;;10.00;5.90;;;;;;;19.13;52.71;101835.74;114695;1205;75022;-82
2021/11/07 08:01:52;;;;;;;9.10;6.20;;;;;;;19.13;52.68;101839.12;114720;1206;61237;-82
2021/11/07 08:05:06;;;;;;;9.20;6.30;;;;;;;19.13;52.72;101841.80;114457;1209;59282;-82
2021/11/07 08:07:55;;;;;;;9.30;6.60;;;;;;;19.13;52.76;101843.22;114655;1205;72232;-82
2021/11/07 08:10:23;;;;;;;8.10;6.40;;;;;;;19.13;52.79;101839.83;114492;1208;74469;-82
2021/11/07 08:13:04;;;;;;;9.30;6.10;;;;;;;19.13;52.78;101841.08;114540;1208;59845;-83
2021/11/07 08:15:41;;;;;;;10.00;6.80;;;;;;;19.13;52.71;101838.23;114511;1208;58469;-82
2021/11/07 08:18:35;;;;;;;9.50;6.30;;;;;;;19.13;52.79;101836.79;114569;1208;64753;-83
2021/11/07 08:21:20;;;;;;;;;;;;;;;;;;;;;
2021/11/07 08:23:49;;;;;;;8.60;6.30;;;;;;;19.14;52.77;101832.13;114487;1209;58894;-82
2021/11/07 08:26:20;;;;;;;8.60;6.20;;;;;;;19.14;52.61;101833.17;114540;1206;58858;-82
2021/11/07 08:29:15;;;;;;;9.60;6.40;;;;;;;19.15;52.74;101830.11;114615;1206;63856;-82
2021/11/07 08:32:39;;;;;;;8.30;5.80;;;;;;;19.14;52.92;101829.63;114657;1198;65733;31
2021/11/07 08:35:11;;;;;;;8.20;5.70;;;;;;;19.15;52.78;101829.78;115088;1200;60039;-82
2021/11/07 08:37:57;;;;;;;;;;;;;;;;;;;;;
2021/11/07 08:40:48;;;;;;;9.40;5.90;;;;;;;19.15;52.74;101811.36;115269;1200;72888;-83
2021/11/07 09:04:16;;;;;;;;;;;;;;;;;;;;;
2021/11/07 09:06:56;;;;;;;7.80;5.60;;;;;;;19.16;52.90;101756.54;114626;1205;75452;-82
2021/11/07 09:10:17;;;;;;;8.70;5.90;;;;;;;19.16;52.94;101748.50;114691;1206;59197;-82
2021/11/07 09:16:14;;;;;;;7.70;5.60;;;;;;;19.16;52.92;101743.52;114492;1190;70819;31
2021/11/07 09:19:01;;;;;;;8.10;5.40;;;;;;;19.16;52.95;101745.83;115257;1200;74222;-82
2021/11/07 09:21:33;;;;;;;7.50;5.70;;;;;;;19.17;52.93;101738.13;115159;1200;59938;-82
2021/11/07 09:24:24;;;;;;;10.60;6.10;;;;;;;19.17;52.92;101727.23;115097;1199;59901;-82
2021/11/07 09:27:21;;;;;;;8.80;6.10;;;;;;;19.16;52.95;101721.38;115076;1200;72184;-83
2021/11/07 09:30:08;;;;;;;8.40;6.10;;;;;;;19.17;52.86;101719.92;115191;1200;74448;-82
2021/11/07 09:33:08;;;;;;;7.50;5.50;;;;;;;19.17;52.98;101719.55;115197;1200;60950;-82
2021/11/07 09:35:55;;;;;;;;;;;;;;;;;;;;;
2021/11/07 09:39:28;;;;;;;;;;;;;;;;;;;;;
2021/11/07 09:43:16;;;;;;;7.90;5.50;;;;;;;19.16;52.92;101704.25;115014;1202;74305;-82
2021/11/07 09:46:47;;;;;;;8.50;5.70;;;;;;;19.16;52.95;101704.08;115148;1201;60122;-82
2021/11/07 10:07:37;;;;;;;8.30;5.90;;;;;;;19.15;53.01;101652.77;114315;1198;72471;31
2021/11/07 10:10:29;;;;;;;10.60;6.00;;;;;;;19.15;52.95;101655.42;115169;1200;74314;-81
2021/11/07 10:13:35;;;;;;;7.60;5.70;;;;;;;19.15;53.07;101653.06;115135;1200;59883;-81
2021/11/07 10:16:32;;;;;;;8.80;5.70;;;;;;;19.15;53.05;101647.91;115264;1200;60063;-84
2021/11/07 10:19:23;;;;;;;9.00;5.90;;;;;;;19.15;52.93;101657.17;115121;1200;72627;-83
2021/11/07 10:21:53;;;;;;;8.30;5.60;;;;;;;19.16;52.95;101658.23;115265;1200;74489;-83
2021/11/07 10:24:23;;;;;;;8.10;5.80;;;;;;;19.16;53.05;101650.52;115140;1193;60095;-83
2021/11/07 10:27:03;;;;;;;8.80;5.70;;;;;;;19.17;53.00;101646.23;115265;1199;61254;-83
2021/11/07 10:29:41;;;;;;;7.60;5.40;;;;;;;19.17;52.90;101641.21;115133;1200;72376;-83
2021/11/07 10:32:38;;;;;;;8.60;6.20;;;;;;;19.17;52.96;101643.34;115132;1200;74399;-83
2021/11/07 10:54:31;;;;;;;8.70;5.20;;;;;;;19.16;52.92;101601.48;115208;1198;70946;-81
2021/11/07 10:57:46;;;;;;;8.60;6.00;;;;;;;19.16;53.08;101597.71;115301;1198;74535;-81
2021/11/07 11:00:44;;;;;;;7.80;5.70;;;;;;;19.15;53.06;101591.86;114985;1202;59724;-81
2021/11/07 11:03:16;;;;;;;7.90;5.60;;;;;;;19.16;52.95;101588.64;114819;1203;61109;-81
2021/11/07 11:05:55;;;;;;;8.30;5.50;;;;;;;19.16;53.08;101582.90;114900;1203;73740;-81
2021/11/07 11:09:09;;;;;;;9.80;6.30;;;;;;;19.16;52.96;101588.61;114952;1202;75636;-82
2021/11/07 11:11:56;;;;;;;7.10;5.50;;;;;;;19.16;53.17;101586.13;114996;1202;59421;-82
2021/11/07 11:15:05;;;;;;;8.70;6.40;;;;;;;19.16;53.09;101583.99;114833;1203;60130;-82
2021/11/07 11:19:05;;;;;;;;;;;;;;;;;;;;;
2021/11/07 11:22:47;;;;;;;;;;;;;;;;;;;;;
2021/11/07 11:25:31;;;;;;;7.80;5.70;;;;;;;19.14;53.06;101568.75;114785;1198;60785;-81
2021/11/07 11:43:26;;;;;;;10.40;5.50;;;;;;;19.14;53.21;101509.68;114254;1198;71775;-80
2021/11/07 11:46:01;;;;;;;10.70;6.30;;;;;;;19.15;53.13;101513.75;115300;1198;75070;-82
2021/11/07 11:49:05;;;;;;;8.90;5.90;;;;;;;19.15;53.19;101514.27;115109;1199;58876;-84
2021/11/07 11:52:06;;;;;;;;;;;;;;;;;;;;;
2021/11/07 11:58:10;;;;;;;;;;;;;;;;;;;;;
2021/11/07 12:07:34;;;;;;;7.70;5.50;;;;;;;19.14;53.28;101493.26;115229;1198;72278;-82
2021/11/07 12:10:15;;;;;;;7.90;5.50;;;;;;;19.15;53.29;101489.67;115237;1198;75294;-82
2021/11/07 12:12:57;;;;;;;;;;;;;;;19.15;53.19;101484.14;115215;1198;62045;-83
2021/11/07 12:15:49;;;;;;;8.30;5.60;;;;;;;19.12;53.33;101481.96;115210;1198;59900;-83
2021/11/07 12:18:15;;;;;;;8.80;5.90;;;;;;;19.13;53.38;101481.54;115177;1198;71799;-83
2021/11/07 12:20:52;;;;;;;9.40;5.50;;;;;;;19.13;53.32;101469.77;115165;1199;74113;-82
2021/11/07 12:23:52;;;;;;;;;;;;;;;;;;;;;
2021/11/07 12:26:32;;;;;;;8.60;5.40;;;;;;;19.13;53.27;101463.89;115282;1198;59788;-82
2021/11/07 12:30:02;;;;;;;9.00;5.80;;;;;;;19.14;53.34;101460.45;115300;1198;72334;-82
2021/11/07 12:32:49;;;;;;;8.10;5.60;;;;;;;19.13;53.36;101451.58;115271;1198;74489;-82
2021/11/07 12:35:25;;;;;;;8.30;5.80;;;;;;;19.14;53.39;101450.64;115319;1198;60084;-82
2021/11/07 12:41:25;;;;;;;8.20;5.70;;;;;;;19.13;53.34;101444.64;115161;1198;72297;-82
2021/11/07 12:44:03;;;;;;;7.40;5.50;;;;;;;19.13;53.31;101436.05;115244;1198;74767;-82
2021/11/07 12:46:54;;;;;;;;;;;;;;;;;;;;;
2021/11/07 12:49:54;;;;;;;9.00;5.60;;;;;;;19.14;53.40;101425.49;115219;1198;61339;-82
2021/11/07 12:52:59;;;;;;;;;;;;;;;;;;;;;
2021/11/07 13:19:26;;;;;;;;;;;;;;;;;;;;;
2021/11/07 13:22:38;;;;;;;8.20;5.50;;;;;;;19.13;53.47;101385.92;115194;1200;75593;-81
2021/11/07 13:28:38;;;;;;;7.60;5.60;;;;;;;19.12;53.34;101376.85;114843;1203;59886;-83
2021/11/07 13:31:38;;;;;;;7.80;5.20;;;;;;;19.13;53.60;101379.50;114891;1203;73334;-83
2021/11/07 13:34:25;;;;;;;9.80;5.30;;;;;;;19.16;53.54;101367.57;114838;1203;73918;-83
2021/11/07 13:37:09;;;;;;;8.50;5.60;;;;;;;19.20;53.77;101366.41;114844;1203;60080;-83
2021/11/07 13:39:36;;;;;;;8.70;5.90;;;;;;;19.24;53.95;101362.61;114812;1203;59865;-82
2021/11/07 13:42:47;;;;;;;8.50;5.40;;;;;;;19.29;53.89;101370.95;114896;1203;72554;-84
2021/11/07 13:45:18;;;;;;;8.50;5.50;;;;;;;19.33;53.74;101371.80;114935;1202;74529;-83
2021/11/07 13:47:49;;;;;;;8.40;5.70;;;;;;;19.35;53.67;101372.73;114914;1202;59833;-83
2021/11/07 13:50:18;;;;;;;7.40;5.50;;;;;;;19.37;53.64;101363.73;114915;1203;60215;-83
2021/11/07 13:52:44;;;;;;;;;;;;;;;19.37;53.48;101353.70;114796;1204;71114;-83
2021/11/07 13:55:27;;;;;;;8.10;6.10;;;;;;;19.35;53.53;101357.03;114867;1203;59422;-83
2021/11/07 13:57:53;;;;;;;7.50;5.40;;;;;;;19.36;53.38;101351.84;114936;1203;60281;-83
2021/11/07 14:00:22;;;;;;;8.50;5.50;;;;;;;19.35;53.47;101350.42;114999;1187;60027;-83
2021/11/07 14:03:16;;;;;;;7.40;5.10;;;;;;;19.35;53.42;101347.23;115036;1201;71536;-83
2021/11/07 14:06:24;;;;;;;;;;;;;;;;;;;;;
2021/11/07 14:08:59;;;;;;;8.50;5.70;;;;;;;19.32;53.43;101341.68;114909;1203;58893;-83
2021/11/07 14:11:50;;;;;;;7.70;5.80;;;;;;;19.32;53.46;101339.02;114884;1203;61231;-83
2021/11/07 14:14:26;;;;;;;8.60;5.90;;;;;;;19.31;53.52;101337.86;114931;1195;72370;-83
2021/11/07 14:17:05;;;;;;;7.80;5.50;;;;;;;19.30;53.54;101339.31;114958;1203;73511;-83
2021/11/07 14:19:44;;;;;;;7.30;5.50;;;;;;;19.29;53.51;101332.96;114836;1203;59733;-82
2021/11/07 14:22:16;;;;;;;8.00;5.30;;;;;;;19.28;53.51;101334.59;114990;1203;61198;-83
2021/11/07 14:25:18;;;;;;;8.80;5.70;;;;;;;19.27;53.43;101329.48;114917;1203;72370;-82
2021/11/07 14:27:55;;;;;;;8.50;5.60;;;;;;;19.26;53.47;101325.23;114907;1203;74783;-83
2021/11/07 14:30:31;;;;;;;9.50;6.20;;;;;;;19.25;53.46;101320.64;114951;1202;61144;-83
2021/11/07 14:33:12;;;;;;;7.90;5.60;;;;;;;19.25;53.55;101314.77;114901;1203;61163;-82
2021/11/07 14:35:49;;;;;;;8.60;5.20;;;;;;;19.24;53.51;101313.75;114914;1203;72237;-83
2021/11/07 14:38:56;;;;;;;8.50;6.10;;;;;;;19.23;53.36;101311.84;115002;1203;74381;-83
2021/11/07 14:41:35;;;;;;;7.80;5.60;;;;;;;19.22;53.46;101303.85;114815;1203;59892;-83
2021/11/07 14:44:31;;;;;;;;;;;;;;;;;;;;;
2021/11/07 14:54:39;;;;;;;;;;;;;;;;;;;;;
2021/11/07 15:00:21;;;;;;;8.10;6.10;;;;;;;19.17;53.51;101294.31;114696;1205;73016;-83
2021/11/07 15:03:12;;;;;;;8.80;5.60;;;;;;;19.17;53.53;101291.30;114621;1206;74468;-83
2021/11/07 15:06:04;;;;;;;8.60;5.60;;;;;;;19.17;53.56;101288.95;114614;1206;61140;-83
2021/11/07 15:08:52;;;;;;;;;;;;;;;;;;;;;
2021/11/07 15:24:55;;;;;;;7.90;5.80;;;;;;;19.14;53.58;101296.65;114665;1196;72846;-81
2021/11/07 15:27:29;;;;;;;8.00;6.10;;;;;;;19.14;53.69;101289.17;115153;1198;66742;-81
2021/11/07 15:30:18;;;;;;;7.40;5.80;;;;;;;19.14;53.72;101296.28;115151;1198;60166;-81
2021/11/07 15:33:28;;;;;;;8.90;5.90;;;;;;;19.14;53.72;101298.63;115469;1197;58848;-83
2021/11/07 15:36:03;;;;;;;9.50;6.30;;;;;;;19.13;53.66;101302.59;115308;1198;63497;-83
2021/11/07 15:38:31;;;;;;;7.90;5.80;;;;;;;19.13;53.76;101302.57;115313;1198;66743;-84
2021/11/07 15:41:05;;;;;;;9.50;6.10;;;;;;;19.14;53.69;101294.88;115247;1198;58751;-83
2021/11/07 15:43:42;;;;;;;8.60;6.00;;;;;;;19.13;53.57;101290.44;115301;1198;58774;-83
2021/11/07 15:46:44;;;;;;;9.60;6.50;;;;;;;19.13;53.71;101289.72;115206;1198;63772;-83
2021/11/07 15:49:34;;;;;;;9.70;6.00;;;;;;;19.13;53.58;101292.24;115174;1198;65590;-84
2021/11/07 15:52:40;;;;;;;8.00;5.90;;;;;;;19.12;53.71;101292.49;115472;1197;58640;-84
2021/11/07 15:56:11;;;;;;;;;;;;;;;;;;;;;
2021/11/07 16:02:35;;;;;;;8.30;6.10;;;;;;;19.10;53.82;101284.37;114823;1204;66630;-84
2021/11/07 16:05:47;;;;;;;;;;;;;;;;;;;;;
2021/11/07 16:16:32;;;;;;;9.80;6.10;;;;;;;19.09;53.81;101281.73;114668;1198;74351;-81
2021/11/07 16:18:23;;;;;;;8.70;6.50;;;;;;;19.09;53.75;101286.38;115303;1199;58757;-81
2021/11/07 16:21:22;;;;;;;9.10;6.50;;;;;;;19.09;53.77;101285.66;115267;1198;58198;-81
2021/11/07 16:24:53;;;;;;;8.50;6.40;;;;;;;19.09;53.78;101286.91;115283;1198;63760;-81
2021/11/07 16:38:04;;;;;;;9.90;7.30;;;;;;;19.28;54.13;101286.10;115127;1198;72015;-81
2021/11/07 16:40:47;;;;;;;10.40;6.80;;;;;;;19.30;54.13;101277.92;114910;1202;66636;-81
2021/11/07 16:43:43;;;;;;;10.40;7.40;;;;;;;19.32;54.05;101270.87;115122;1201;58818;-82
2021/11/07 16:46:42;;;;;;;;;;;;;;;;;;;;;
2021/11/07 16:49:37;;;;;;;12.10;7.50;;;;;;;19.32;53.70;101258.51;115153;1201;64847;-81
2021/11/07 16:52:30;;;;;;;11.10;7.60;;;;;;;19.32;53.63;101249.77;115179;1201;65904;-81
2021/11/07 16:56:03;;;;;;;11.00;7.20;;;;;;;19.31;53.64;101245.72;115148;1201;58982;-81
2021/11/07 17:01:51;;;;;;;;;;;;;;;;;;;;;
2021/11/07 17:04:55;;;;;;;9.30;6.60;;;;;;;19.27;53.61;101241.86;115172;1201;74318;-81
2021/11/07 17:10:12;;;;;;;11.00;7.50;;;;;;;19.24;53.71;101246.27;115185;1202;60025;-81
2021/11/07 17:13:00;;;;;;;;;;;;;;;;;;;;;
2021/11/07 17:15:42;;;;;;;12.10;7.10;;;;;;;19.22;53.59;101245.90;114995;1202;75138;-81
2021/11/07 17:18:29;;;;;;;;;;;;;;;19.20;53.51;101244.92;115008;1202;61093;-81
2021/11/07 17:22:16;;;;;;;9.90;7.10;;;;;;;19.18;53.57;101247.55;115146;1201;59922;-81
2021/11/07 17:38:14;;;;;;;10.90;7.50;;;;;;;19.11;53.71;101232.05;114798;1196;71994;-80
2021/11/07 17:57:12;;;;;;;10.70;7.70;;;;;;;19.08;53.73;101211.89;114551;1197;59652;-81
2021/11/07 17:59:48;;;;;;;11.50;7.60;;;;;;;19.08;53.78;101203.69;115361;1198;61846;-81
2021/11/07 18:02:34;;;;;;;10.20;7.20;;;;;;;19.08;53.91;101194.39;115154;1198;73301;-81
2021/11/07 18:05:08;;;;;;;9.50;7.30;;;;;;;19.08;53.77;101194.75;115307;1198;74431;-82
2021/11/07 18:07:48;;;;;;;10.60;7.90;;;;;;;19.08;53.83;101201.36;115232;1198;61021;-81
2021/11/07 18:10:20;;;;;;;10.80;7.70;;;;;;;19.08;53.83;101193.51;115192;1198;60373;-82
2021/11/07 18:13:03;;;;;;;;;;;;;;;;;;;;;
2021/11/07 18:15:44;;;;;;;12.10;7.90;;;;;;;19.08;53.86;101188.52;115170;1190;74802;-81
2021/11/07 18:18:13;;;;;;;10.80;7.20;;;;;;;19.08;53.86;101183.34;115232;1198;58713;-81
2021/11/07 18:21:13;;;;;;;12.50;7.50;;;;;;;19.08;53.80;101179.41;115136;1198;59928;-82
2021/11/07 18:24:58;;;;;;;10.90;7.30;;;;;;;19.08;53.86;101179.08;115112;1201;71508;-82
2021/11/07 18:37:39;;;;;;;11.10;7.20;;;;;;;19.24;54.20;101183.45;115198;1197;72172;-82
2021/11/07 18:40:25;;;;;;;10.40;7.40;;;;;;;19.28;53.99;101189.54;115481;1197;74764;-82
2021/11/07 18:42:54;;;;;;;10.50;7.50;;;;;;;19.29;54.04;101193.57;115131;1198;59054;-82
2021/11/07 18:45:39;;;;;;;10.60;7.20;;;;;;;19.30;54.05;101192.26;115271;1197;61047;-83
2021/11/07 18:48:17;;;;;;;9.30;6.90;;;;;;;19.30;53.81;101194.58;115296;1190;73163;-82
2021/11/07 18:51:01;;;;;;;9.30;7.10;;;;;;;19.30;53.92;101196.20;115262;1198;74415;-82